Time;durP1;ratioP1;P1;durP2;ratioP2;P2;SDS_P1;SDS_P2;PMS_P1;PMS_P2;Temp;Humidity;BMP_temperature;BMP_pressure;BME280_temperature;BME280_humidity;BME280_pressure;Samples;Min_cycle;Max_cycle;Signal;HPM_P1;HPM_P2
2023/06/28 00:01:58;;;;;;;1.50;0.65;;;;;;;21.74;27.92;101461.72;5024131;28;20066;-73
2023/06/28 00:04:26;;;;;;;3.42;1.30;;;;;;;21.72;27.77;101458.25;5022379;28;20034;-73
2023/06/28 00:06:54;;;;;;;1.98;1.08;;;;;;;21.70;27.80;101454.78;5021686;28;20300;-73
2023/06/28 00:09:22;;;;;;;2.10;1.10;;;;;;;21.68;27.74;101459.72;5016128;28;20037;-74
2023/06/28 00:11:49;;;;;;;2.15;1.10;;;;;;;21.66;27.68;101464.63;5016434;28;20173;-73
2023/06/28 00:14:19;;;;;;;3.00;1.10;;;;;;;21.66;27.56;101461.81;5024247;28;20044;-73
2023/06/28 00:16:47;;;;;;;3.92;1.20;;;;;;;21.63;27.66;101459.41;5022410;28;20091;-73
2023/06/28 00:19:17;;;;;;;2.15;0.90;;;;;;;21.61;27.70;101457.88;5018138;28;20045;-74
2023/06/28 00:21:49;;;;;;;3.63;1.00;;;;;;;21.58;27.67;101461.94;5022879;28;20084;-74
2023/06/28 00:24:17;;;;;;;2.35;1.00;;;;;;;21.57;27.83;101460.19;5016352;28;20041;-73
2023/06/28 00:26:44;;;;;;;1.17;0.85;;;;;;;21.56;27.77;101465.94;5014410;28;20049;-74
2023/06/28 00:29:12;;;;;;;2.08;1.10;;;;;;;21.53;27.78;101468.06;5023095;28;20160;-73
2023/06/28 00:31:41;;;;;;;3.25;1.42;;;;;;;21.54;27.94;101471.72;5033928;28;20139;-73
2023/06/28 00:34:09;;;;;;;3.00;1.00;;;;;;;21.50;28.01;101468.47;5020711;28;20562;-73
2023/06/28 00:36:37;;;;;;;3.10;1.02;;;;;;;21.49;27.85;101474.22;5014921;28;20050;-73
2023/06/28 00:39:05;;;;;;;3.10;1.10;;;;;;;21.46;28.06;101472.66;5021073;28;20492;-75
2023/06/28 00:41:33;;;;;;;1.90;1.00;;;;;;;21.45;28.04;101475.63;5015011;28;20057;-73
2023/06/28 00:44:02;;;;;;;2.75;1.20;;;;;;;21.43;28.05;101475.00;5015085;28;20037;-73
2023/06/28 00:46:30;;;;;;;2.35;1.02;;;;;;;21.41;27.83;101477.09;5018937;28;20284;-74
2023/06/28 00:49:00;;;;;;;2.22;1.00;;;;;;;21.41;28.44;101485.44;5018227;28;20041;-73
2023/06/28 00:51:31;;;;;;;2.70;1.10;;;;;;;21.40;28.27;101487.38;5034832;28;20068;-73
2023/06/28 00:53:59;;;;;;;2.58;1.10;;;;;;;21.37;28.35;101487.72;5018339;28;20049;-73
2023/06/28 00:56:28;;;;;;;2.67;1.17;;;;;;;21.35;28.30;101486.22;5019081;28;20111;-73
2023/06/28 00:58:56;;;;;;;2.75;0.90;;;;;;;21.34;28.70;101484.47;5013487;28;20069;-73
2023/06/28 01:01:25;;;;;;;3.17;1.20;;;;;;;21.32;28.49;101481.00;5038048;28;20066;-73
2023/06/28 01:03:53;;;;;;;3.13;1.20;;;;;;;21.30;29.06;101489.56;5016768;28;20156;-73
2023/06/28 01:06:24;;;;;;;2.53;1.30;;;;;;;21.31;28.66;101485.72;5015831;28;20279;-73
2023/06/28 01:08:54;;;;;;;2.55;1.10;;;;;;;21.25;28.67;101482.81;5017609;28;20498;-74
2023/06/28 01:11:22;;;;;;;2.15;1.10;;;;;;;21.25;28.63;101480.03;5015404;28;20045;-73
2023/06/28 01:13:50;;;;;;;3.75;1.42;;;;;;;21.23;28.69;101493.25;5018974;28;20045;-74
2023/06/28 01:16:18;;;;;;;2.40;1.38;;;;;;;21.22;28.74;101481.25;5018301;28;20060;-73
2023/06/28 01:18:47;;;;;;;2.40;1.05;;;;;;;21.21;28.82;101492.56;5021398;28;20366;-74
2023/06/28 01:21:17;;;;;;;4.05;1.10;;;;;;;21.20;28.66;101488.91;5017513;28;20042;-73
2023/06/28 01:23:48;;;;;;;2.30;1.10;;;;;;;21.18;29.00;101492.97;5017257;28;20088;-73
2023/06/28 01:26:17;;;;;;;3.40;1.23;;;;;;;21.15;28.95;101480.28;5036827;28;20040;-74
2023/06/28 01:28:46;;;;;;;1.75;1.00;;;;;;;21.14;28.85;101487.75;5017403;28;20169;-73
2023/06/28 01:31:14;;;;;;;2.28;1.05;;;;;;;21.12;29.14;101477.88;5016664;28;20045;-73
2023/06/28 01:33:42;;;;;;;2.05;1.20;;;;;;;21.09;29.10;101479.13;5018970;28;20070;-74
2023/06/28 01:36:10;;;;;;;2.78;1.20;;;;;;;21.09;29.13;101483.81;5017834;28;20037;-73
2023/06/28 01:38:40;;;;;;;2.03;1.10;;;;;;;21.09;29.15;101486.63;5028985;28;20047;-73
2023/06/28 01:41:10;;;;;;;3.58;1.10;;;;;;;21.08;29.44;101484.88;5015728;28;20038;-74
2023/06/28 01:43:39;;;;;;;2.08;1.20;;;;;;;21.03;29.20;101485.44;5020931;28;20458;-74
2023/06/28 01:46:07;;;;;;;2.88;1.05;;;;;;;21.02;29.29;101483.72;5016141;28;20069;-74
2023/06/28 01:48:35;;;;;;;3.30;1.15;;;;;;;21.00;29.38;101480.25;5013540;28;20464;-74
2023/06/28 01:51:04;;;;;;;2.72;1.15;;;;;;;21.00;29.47;101482.16;5018317;28;20136;-74
2023/06/28 01:53:32;;;;;;;2.00;1.10;;;;;;;20.97;29.42;101483.41;5031334;28;20198;-74
2023/06/28 01:56:00;;;;;;;3.60;1.40;;;;;;;20.97;29.45;101488.09;5015854;28;20033;-74
2023/06/28 01:58:31;;;;;;;2.38;1.30;;;;;;;20.96;29.55;101489.16;5032176;28;20050;-74
2023/06/28 02:00:59;;;;;;;3.67;1.33;;;;;;;20.94;29.54;101496.84;5017240;28;20100;-74
2023/06/28 02:03:27;;;;;;;2.15;1.17;;;;;;;20.91;29.31;101491.63;5013735;28;20060;-73
2023/06/28 02:05:55;;;;;;;2.13;1.02;;;;;;;20.90;29.33;101490.78;5029625;28;20498;-74
2023/06/28 02:08:24;;;;;;;2.65;1.20;;;;;;;20.88;29.45;101492.88;5012473;28;20053;-74
2023/06/28 02:10:52;;;;;;;1.38;1.00;;;;;;;20.87;29.48;101498.63;5014383;28;20568;-74
2023/06/28 02:13:20;;;;;;;2.28;1.15;;;;;;;20.85;29.53;101492.41;5016977;28;20071;-74
2023/06/28 02:15:49;;;;;;;1.95;1.10;;;;;;;20.85;29.31;101484.91;5017886;28;20076;-75
2023/06/28 02:18:17;;;;;;;2.65;1.30;;;;;;;20.81;29.87;101480.75;5018867;28;20137;-74
2023/06/28 02:20:45;;;;;;;2.58;1.20;;;;;;;20.79;29.65;101480.06;5017665;28;20044;-74
2023/06/28 02:23:13;;;;;;;2.40;1.30;;;;;;;20.79;29.64;101491.22;5017032;28;20060;-73
2023/06/28 02:25:41;;;;;;;2.33;1.27;;;;;;;20.78;29.74;101489.47;5013253;28;20049;-74
2023/06/28 02:28:09;;;;;;;2.75;1.30;;;;;;;20.77;29.79;101485.84;5016550;28;20046;-74
2023/06/28 02:30:37;;;;;;;2.63;1.13;;;;;;;20.76;29.82;101491.59;5015886;28;20053;-74
2023/06/28 02:33:06;;;;;;;2.55;1.40;;;;;;;20.76;29.88;101489.69;5015486;28;20480;-74
2023/06/28 02:35:35;;;;;;;2.78;1.35;;;;;;;20.72;29.80;101481.88;5014123;28;20044;-74
2023/06/28 02:38:03;;;;;;;3.08;1.20;;;;;;;20.71;30.01;101481.00;5016387;28;20571;-74
2023/06/28 02:40:31;;;;;;;3.28;1.05;;;;;;;20.69;29.72;101480.34;5020938;28;20049;-73
2023/06/28 02:42:59;;;;;;;2.55;1.48;;;;;;;20.68;30.05;101489.75;5020021;28;20049;-74
2023/06/28 02:45:27;;;;;;;2.67;1.30;;;;;;;20.67;29.92;101484.38;5019474;28;20120;-74
2023/06/28 02:47:55;;;;;;;2.45;1.08;;;;;;;20.65;29.86;101484.53;5021290;28;20466;-74
2023/06/28 02:50:25;;;;;;;2.95;1.13;;;;;;;20.66;29.99;101486.28;5019269;28;20049;-73
2023/06/28 02:53:04;;;;;;;2.55;1.15;;;;;;;20.61;30.11;101479.56;5016057;28;20406;-73
2023/06/28 02:55:32;;;;;;;3.50;1.30;;;;;;;20.60;30.39;101480.59;5016794;28;20034;-74
2023/06/28 02:58:04;;;;;;;2.88;1.15;;;;;;;20.57;30.21;101472.59;5021369;28;20059;-73
2023/06/28 03:00:32;;;;;;;3.78;1.30;;;;;;;20.57;30.49;101472.59;5017986;28;20448;-74
2023/06/28 03:03:03;;;;;;;1.95;1.10;;;;;;;20.56;30.46;101471.72;5036030;28;20042;-74
2023/06/28 03:05:33;;;;;;;3.13;1.27;;;;;;;20.55;30.67;101474.66;5019462;28;20041;-74
2023/06/28 03:08:01;;;;;;;4.13;1.70;;;;;;;20.53;30.55;101471.25;5028982;28;20050;-74
2023/06/28 03:10:30;;;;;;;3.95;1.70;;;;;;;20.52;30.85;101477.84;5018488;28;20045;-74
2023/06/28 03:12:58;;;;;;;5.47;2.45;;;;;;;20.51;31.07;101476.13;5024782;28;20051;-74
2023/06/28 03:15:25;;;;;;;4.50;1.83;;;;;;;20.50;31.01;101466.03;5022627;28;20484;-73
2023/06/28 03:17:53;;;;;;;4.15;2.00;;;;;;;20.50;31.21;101463.25;5019578;28;20509;-73
2023/06/28 03:20:21;;;;;;;4.68;1.92;;;;;;;20.48;31.22;101469.00;5019360;28;20050;-73
2023/06/28 03:22:50;;;;;;;3.92;2.10;;;;;;;20.48;31.45;101457.00;5022111;28;20516;-73
2023/06/28 03:25:18;;;;;;;2.97;1.65;;;;;;;20.46;31.64;101471.09;5019873;28;20041;-73
2023/06/28 03:27:48;;;;;;;3.28;1.45;;;;;;;20.44;31.79;101467.66;5018225;28;20065;-73
2023/06/28 03:30:16;;;;;;;3.80;1.80;;;;;;;20.44;31.88;101466.78;5019865;28;20057;-73
2023/06/28 03:32:43;;;;;;;3.20;1.60;;;;;;;20.44;31.60;101472.34;5019437;28;20124;-73
2023/06/28 03:35:11;;;;;;;3.85;1.55;;;;;;;20.44;32.13;101469.56;5019740;28;20107;-73
2023/06/28 03:37:51;;;;;;;3.17;1.60;;;;;;;20.47;32.57;101480.28;5018294;28;20045;-73
2023/06/28 03:40:19;;;;;;;4.75;1.50;;;;;;;20.43;32.29;101471.47;5025975;28;20524;-73
2023/06/28 03:42:47;;;;;;;4.40;1.63;;;;;;;20.42;32.41;101472.53;5020342;28;20050;-73
2023/06/28 03:45:16;;;;;;;3.20;1.60;;;;;;;20.42;32.25;101468.88;5018948;28;20042;-73
2023/06/28 03:47:45;;;;;;;4.70;1.70;;;;;;;20.41;32.42;101470.78;5021334;28;20041;-73
2023/06/28 03:50:13;;;;;;;3.83;1.58;;;;;;;20.41;32.23;101462.44;5016840;28;20049;-73
2023/06/28 03:52:41;;;;;;;3.85;1.67;;;;;;;20.40;32.63;101458.78;5034569;28;20046;-73
2023/06/28 03:55:12;;;;;;;3.17;1.38;;;;;;;20.43;32.23;101456.72;5021864;28;20069;-73
2023/06/28 03:57:41;;;;;;;4.20;1.58;;;;;;;20.40;32.12;101458.78;5022769;28;20046;-73
2023/06/28 04:00:11;;;;;;;2.63;1.40;;;;;;;20.41;32.31;101462.44;5020261;28;20045;-73
2023/06/28 04:02:44;;;;;;;3.40;1.58;;;;;;;20.39;32.44;101462.63;5018505;28;20461;-73
2023/06/28 04:05:12;;;;;;;3.40;1.60;;;;;;;20.40;32.41;101461.56;5023016;28;20317;-73
2023/06/28 04:07:40;;;;;;;3.75;1.50;;;;;;;20.40;32.43;101457.94;5012952;28;20045;-73
2023/06/28 04:10:10;;;;;;;3.25;1.77;;;;;;;20.40;32.63;101461.56;5015300;28;20041;-73
2023/06/28 04:12:39;;;;;;;3.25;1.58;;;;;;;20.42;32.59;101461.41;5024742;28;20257;-73
2023/06/28 04:15:10;;;;;;;3.33;1.70;;;;;;;20.41;32.53;101456.88;5022013;28;20413;-73
2023/06/28 04:17:38;;;;;;;3.40;1.70;;;;;;;20.39;32.80;101450.63;5019801;28;20386;-73
2023/06/28 04:20:08;;;;;;;3.22;1.75;;;;;;;20.40;32.61;101457.94;5018295;28;20156;-73
2023/06/28 04:22:36;;;;;;;2.20;1.40;;;;;;;20.39;32.38;101457.06;5021409;28;20417;-73
2023/06/28 04:25:04;;;;;;;2.40;1.40;;;;;;;20.40;32.36;101463.50;5022333;28;20057;-73
2023/06/28 04:27:32;;;;;;;4.00;1.65;;;;;;;20.39;32.47;101464.53;5023012;28;20062;-73
2023/06/28 04:30:01;;;;;;;4.55;1.60;;;;;;;20.40;32.46;101461.56;5020349;28;20042;-74
2023/06/28 04:32:29;;;;;;;4.25;1.70;;;;;;;20.38;32.77;101469.22;5021096;28;20124;-75
2023/06/28 04:34:59;;;;;;;3.42;1.40;;;;;;;20.38;32.48;101466.44;5021099;28;20038;-75
2023/06/28 04:37:27;;;;;;;5.25;1.73;;;;;;;20.39;32.67;101467.31;5023332;28;20047;-73
2023/06/28 04:39:55;;;;;;;4.05;1.40;;;;;;;20.38;32.86;101468.38;5016862;28;20415;-74
2023/06/28 04:42:23;;;;;;;1.90;1.40;;;;;;;20.39;32.90;101472.88;5018801;28;20073;-73
2023/06/28 04:44:51;;;;;;;3.50;1.50;;;;;;;20.39;33.24;101464.53;5023685;28;20124;-76
2023/06/28 04:47:20;;;;;;;3.17;1.33;;;;;;;20.42;33.47;101463.31;5019722;28;20045;-73
2023/06/28 04:49:50;;;;;;;2.88;1.30;;;;;;;20.41;33.59;101462.44;5021653;28;20116;-74
2023/06/28 04:52:19;;;;;;;3.30;1.50;;;;;;;20.40;33.12;101458.78;5021838;28;20059;-74
2023/06/28 04:54:47;;;;;;;3.35;1.60;;;;;;;20.40;33.65;101467.13;5015860;28;20128;-74
2023/06/28 04:57:17;;;;;;;3.35;1.40;;;;;;;20.42;33.10;101457.75;5021185;28;20049;-75
2023/06/28 04:59:45;;;;;;;2.85;1.23;;;;;;;20.42;33.23;101460.53;5016910;28;20462;-74
2023/06/28 05:02:14;;;;;;;3.58;1.50;;;;;;;20.40;33.17;101461.56;5018360;28;20600;-74
2023/06/28 05:04:45;;;;;;;2.65;1.33;;;;;;;20.43;33.40;101460.34;5020945;28;20041;-74
2023/06/28 05:07:12;;;;;;;3.35;1.67;;;;;;;20.40;33.61;101456.03;5020208;28;20062;-74
2023/06/28 05:09:40;;;;;;;2.58;1.35;;;;;;;20.42;33.50;101457.75;5030758;28;20072;-74
2023/06/28 05:12:09;;;;;;;2.13;1.35;;;;;;;20.41;33.35;101456.88;5030746;28;20111;-74
2023/06/28 05:14:36;;;;;;;2.72;1.30;;;;;;;20.42;33.67;101461.41;5019285;28;20045;-75
2023/06/28 05:17:04;;;;;;;3.80;1.55;;;;;;;20.42;33.73;101457.75;5017975;28;20052;-74
2023/06/28 05:19:32;;;;;;;3.20;1.45;;;;;;;20.41;33.97;101462.44;5021924;28;20108;-74
2023/06/28 05:22:02;;;;;;;3.20;1.70;;;;;;;20.43;33.89;101457.56;5017200;28;20088;-74
2023/06/28 05:24:29;;;;;;;2.95;1.30;;;;;;;20.42;33.71;101463.31;5016787;28;20042;-74
2023/06/28 05:26:57;;;;;;;3.08;1.38;;;;;;;20.40;33.85;101467.13;5016651;28;20398;-73
2023/06/28 05:29:25;;;;;;;3.88;1.55;;;;;;;20.42;33.87;101468.88;5020909;28;20068;-74
2023/06/28 05:31:53;;;;;;;3.38;1.50;;;;;;;20.40;33.91;101467.13;5014201;28;20132;-73
2023/06/28 05:34:21;;;;;;;3.22;1.30;;;;;;;20.39;33.84;101470.97;5029082;28;20577;-75
2023/06/28 05:36:49;;;;;;;3.20;1.30;;;;;;;20.38;33.83;101469.22;5018417;28;20151;-74
2023/06/28 05:39:18;;;;;;;2.70;1.30;;;;;;;20.38;33.71;101463.66;5018302;28;20042;-74
2023/06/28 05:41:46;;;;;;;3.65;1.30;;;;;;;20.36;33.62;101464.94;5016654;28;20056;-74
2023/06/28 05:44:15;;;;;;;2.22;1.30;;;;;;;20.34;33.69;101472.56;5018458;28;20382;-74
2023/06/28 05:46:42;;;;;;;2.67;1.23;;;;;;;20.33;33.38;101473.63;5020625;28;20080;-74
2023/06/28 05:49:10;;;;;;;2.40;1.20;;;;;;;20.33;33.51;101471.72;5019595;28;20063;-75
2023/06/28 05:51:38;;;;;;;3.35;1.10;;;;;;;20.32;33.21;101464.41;5018195;28;20413;-75
2023/06/28 05:54:06;;;;;;;5.00;1.30;;;;;;;20.32;33.32;101466.31;5019806;28;20080;-74
2023/06/28 05:56:35;;;;;;;5.07;1.35;;;;;;;20.32;33.20;101467.19;5017178;28;20354;-74
2023/06/28 05:59:03;;;;;;;2.85;1.25;;;;;;;20.31;33.42;101475.72;5017293;28;20045;-77
2023/06/28 06:01:31;;;;;;;2.72;1.30;;;;;;;20.31;33.14;101467.38;5020739;28;20062;-77
2023/06/28 06:03:59;;;;;;;2.97;1.23;;;;;;;20.32;33.16;101463.53;5023361;28;20099;-77
2023/06/28 06:06:27;;;;;;;4.53;1.45;;;;;;;20.30;33.12;101455.38;5024222;28;20041;-77
2023/06/28 06:08:55;;;;;;;2.90;1.15;;;;;;;20.32;32.96;101458.84;5018987;28;20072;-77
2023/06/28 06:11:25;;;;;;;4.22;1.30;;;;;;;20.31;32.99;101456.25;5019318;28;20053;-77
2023/06/28 06:13:54;;;;;;;3.67;1.40;;;;;;;20.34;32.86;101464.22;5014834;28;20460;-77
2023/06/28 06:16:22;;;;;;;2.70;1.10;;;;;;;20.31;33.05;101461.81;5017629;28;20041;-76
2023/06/28 06:18:49;;;;;;;2.33;1.17;;;;;;;20.33;32.91;101462.50;5018167;28;20125;-77
2023/06/28 06:21:18;;;;;;;3.40;1.38;;;;;;;20.32;33.27;101460.78;5017849;28;20488;-76
2023/06/28 06:23:46;;;;;;;3.53;1.20;;;;;;;20.30;33.04;101455.38;5025930;28;20104;-76
2023/06/28 06:26:14;;;;;;;3.72;1.17;;;;;;;20.29;32.91;101450.88;5018958;28;20053;-77
2023/06/28 06:28:42;;;;;;;2.80;1.13;;;;;;;20.27;32.92;101447.44;5024622;28;20026;-77
2023/06/28 06:31:13;;;;;;;3.33;1.30;;;;;;;20.29;33.10;101461.13;5021467;28;20149;-77
2023/06/28 06:33:41;;;;;;;3.03;1.30;;;;;;;20.24;32.90;101464.47;5019157;28;20549;-77
2023/06/28 06:36:09;;;;;;;3.40;1.40;;;;;;;20.25;33.16;101457.88;5015743;28;20053;-78
2023/06/28 06:38:37;;;;;;;3.10;1.20;;;;;;;20.25;32.99;101460.66;5012576;28;20279;-77
2023/06/28 06:41:05;;;;;;;3.83;1.20;;;;;;;20.23;32.65;101457.16;5021167;28;20049;-78
2023/06/28 06:43:33;;;;;;;4.80;1.17;;;;;;;20.22;32.94;101457.34;5016260;28;20061;-77
2023/06/28 06:46:01;;;;;;;3.30;1.30;;;;;;;20.22;33.26;101460.13;5023236;28;20041;-78
2023/06/28 06:48:30;;;;;;;3.67;1.35;;;;;;;20.23;32.95;101461.88;5018284;28;20052;-77
2023/06/28 06:50:58;;;;;;;3.25;1.40;;;;;;;20.20;33.03;101468.66;5019061;28;20481;-77
2023/06/28 06:53:26;;;;;;;3.25;1.40;;;;;;;20.19;33.13;101468.84;5017544;28;20046;-76
2023/06/28 06:55:54;;;;;;;2.25;1.20;;;;;;;20.19;33.16;101468.84;5018706;28;20042;-78
2023/06/28 06:58:23;;;;;;;3.45;1.33;;;;;;;20.18;33.39;101464.34;5039220;28;20053;-77
2023/06/28 07:00:51;;;;;;;3.53;1.38;;;;;;;20.18;33.25;101472.69;5019268;28;20128;-77
2023/06/28 07:03:19;;;;;;;3.45;1.10;;;;;;;20.17;33.37;101474.59;5039266;28;20057;-77
2023/06/28 07:05:48;;;;;;;3.40;1.40;;;;;;;20.20;33.28;101473.38;5018359;28;20416;-78
2023/06/28 07:08:18;;;;;;;2.47;1.13;;;;;;;20.20;33.48;101481.72;5012866;28;20053;-78
2023/06/28 07:10:45;;;;;;;2.60;1.20;;;;;;;20.18;33.31;101479.09;5024083;28;20038;-76
2023/06/28 07:13:14;;;;;;;2.78;1.35;;;;;;;20.18;33.44;101476.31;5022238;28;20107;-77
2023/06/28 07:15:43;;;;;;;3.00;1.40;;;;;;;20.19;33.36;101483.63;5019005;28;20046;-77
2023/06/28 07:18:11;;;;;;;3.38;1.23;;;;;;;20.20;33.13;101478.94;5017731;28;20054;-77
2023/06/28 07:20:39;;;;;;;2.92;1.40;;;;;;;20.21;33.21;101473.16;5038807;28;20091;-77
2023/06/28 07:23:08;;;;;;;3.35;1.50;;;;;;;20.24;33.13;101478.38;5038961;28;20053;-76
2023/06/28 07:25:38;;;;;;;6.82;2.13;;;;;;;20.23;33.19;101481.31;5023461;28;20060;-77
2023/06/28 07:28:06;;;;;;;4.10;1.65;;;;;;;20.23;33.20;101476.63;5020462;28;20065;-77
2023/06/28 07:30:53;;;;;;;4.05;1.50;;;;;;;20.26;33.10;101475.41;5042597;28;20123;-77
2023/06/28 07:33:22;;;;;;;3.60;2.08;;;;;;;20.24;33.13;101478.38;5037164;28;20053;-77
2023/06/28 07:35:50;;;;;;;3.88;1.60;;;;;;;20.25;33.19;101482.88;5021938;28;20125;-77
2023/06/28 07:38:20;;;;;;;4.15;1.90;;;;;;;20.28;33.45;101488.06;5021776;28;20072;-78
2023/06/28 07:40:49;;;;;;;4.30;1.50;;;;;;;20.27;33.27;101468.81;5021059;28;20099;-77
2023/06/28 07:43:18;;;;;;;3.60;1.23;;;;;;;20.28;33.08;101462.19;5038461;28;20041;-77
2023/06/28 07:45:45;;;;;;;3.33;1.60;;;;;;;20.28;33.42;101471.38;5019135;28;20140;-77
2023/06/28 07:48:13;;;;;;;2.97;1.50;;;;;;;20.30;33.63;101479.53;5031701;28;20050;-77
2023/06/28 07:50:42;;;;;;;2.28;1.20;;;;;;;20.31;33.62;101478.50;5017638;28;20030;-76
2023/06/28 07:53:09;;;;;;;4.20;1.70;;;;;;;20.32;33.63;101483.00;5022339;28;20058;-76
2023/06/28 07:55:39;;;;;;;4.15;1.60;;;;;;;20.34;33.25;101480.91;5031872;28;20042;-76
2023/06/28 07:58:07;;;;;;;3.33;1.52;;;;;;;20.33;33.51;101482.81;5020800;28;20053;-77
2023/06/28 08:00:35;;;;;;;2.95;1.40;;;;;;;20.35;33.62;101479.88;5023019;28;20269;-76
2023/06/28 08:03:03;;;;;;;3.25;1.40;;;;;;;20.36;33.66;101488.03;5016804;28;20061;-76
2023/06/28 08:05:31;;;;;;;2.53;1.40;;;;;;;20.37;33.55;101481.41;5025137;28;20081;-76
2023/06/28 08:07:59;;;;;;;2.95;1.58;;;;;;;20.39;33.73;101482.09;5017837;28;20424;-76
2023/06/28 08:10:27;;;;;;;3.10;1.20;;;;;;;20.40;33.42;101480.16;5037243;28;20045;-76
2023/06/28 08:12:57;;;;;;;3.10;1.40;;;;;;;20.44;32.94;101481.56;5019387;28;20597;-79
2023/06/28 08:15:25;;;;;;;3.05;1.30;;;;;;;20.44;32.99;101481.56;5016918;28;20052;-76
2023/06/28 08:17:52;;;;;;;3.65;1.40;;;;;;;20.44;32.95;101480.69;5017744;28;20301;-77
2023/06/28 08:20:21;;;;;;;3.30;1.50;;;;;;;20.44;32.84;101472.34;5022335;28;20034;-77
2023/06/28 08:22:48;;;;;;;4.60;1.60;;;;;;;20.45;32.62;101476.84;5021178;28;20042;-77
2023/06/28 08:25:16;;;;;;;3.85;1.45;;;;;;;20.45;32.81;101482.41;5021772;28;20045;-77
2023/06/28 08:27:44;;;;;;;3.03;1.58;;;;;;;20.46;32.64;101485.00;5024671;28;20483;-77
2023/06/28 08:30:14;;;;;;;4.47;1.80;;;;;;;20.48;32.80;101488.47;5017318;28;20377;-77
2023/06/28 08:32:42;;;;;;;2.40;1.35;;;;;;;20.47;32.80;101483.94;5017111;28;20180;-77
2023/06/28 08:35:10;;;;;;;1.58;1.00;;;;;;;20.48;32.70;101491.25;5022697;28;20100;-76
2023/06/28 08:37:38;;;;;;;3.25;1.48;;;;;;;20.48;32.76;101477.34;5014378;28;20049;-77
2023/06/28 08:40:07;;;;;;;3.42;1.45;;;;;;;20.49;32.75;101478.19;5013907;28;20029;-76
2023/06/28 08:42:35;;;;;;;2.75;1.48;;;;;;;20.49;32.64;101480.97;5012251;28;20072;-77
2023/06/28 08:45:05;;;;;;;3.08;1.20;;;;;;;20.50;32.76;101480.81;5021453;28;20042;-76
2023/06/28 08:47:36;;;;;;;2.35;1.27;;;;;;;20.51;32.75;101476.97;5019893;28;20053;-76
2023/06/28 08:50:05;;;;;;;3.28;1.27;;;;;;;20.50;32.97;101483.59;5024580;28;20050;-77
2023/06/28 08:52:35;;;;;;;2.45;1.30;;;;;;;20.51;33.38;101482.53;5019894;28;20045;-77
2023/06/28 08:55:04;;;;;;;2.30;1.20;;;;;;;20.50;33.31;101482.72;5014943;28;20283;-77
2023/06/28 08:57:39;;;;;;;3.42;1.15;;;;;;;20.50;33.17;101486.38;5015958;28;20112;-77
2023/06/28 09:00:10;;;;;;;2.45;1.30;;;;;;;20.51;33.25;101487.22;5018512;28;20521;-77
2023/06/28 09:02:42;;;;;;;2.72;1.10;;;;;;;20.51;33.03;101485.31;5013520;28;20045;-77
2023/06/28 09:05:11;;;;;;;3.08;1.58;;;;;;;20.48;33.11;101484.81;5020104;28;20452;-77
2023/06/28 09:07:40;;;;;;;2.38;1.25;;;;;;;20.49;33.10;101481.84;5020029;28;20049;-77
2023/06/28 09:10:09;;;;;;;2.30;1.30;;;;;;;20.49;33.45;101487.41;5019518;28;20033;-77
2023/06/28 09:12:38;;;;;;;4.13;1.50;;;;;;;20.50;33.20;101482.72;5019616;28;20144;-77
2023/06/28 09:15:07;;;;;;;3.33;1.20;;;;;;;20.50;33.02;101480.81;5016926;28;20080;-77
2023/06/28 09:17:36;;;;;;;2.58;1.20;;;;;;;20.49;32.85;101481.84;5069194;22;20470;-70
2023/06/28 09:20:17;;;;;;;3.92;1.60;;;;;;;20.52;32.85;101481.50;5055616;28;20028;-70
2023/06/28 09:22:55;;;;;;;3.22;1.35;;;;;;;20.54;32.86;101484.06;5052998;28;20052;-70
2023/06/28 09:25:24;;;;;;;3.67;1.42;;;;;;;20.51;32.93;101482.53;5057620;28;20037;-70
2023/06/28 09:27:53;;;;;;;2.78;1.50;;;;;;;20.52;32.80;101483.41;5058299;28;20144;-70
2023/06/28 09:30:40;;;;;;;2.58;1.48;;;;;;;20.51;32.73;101484.44;5055458;28;20044;-70
2023/06/28 09:33:08;;;;;;;2.45;1.40;;;;;;;20.52;32.66;101481.50;5058610;28;20044;-70
2023/06/28 09:35:38;;;;;;;2.65;1.40;;;;;;;20.55;32.59;101481.09;5055410;28;20033;-70
2023/06/28 09:38:08;;;;;;;3.33;1.48;;;;;;;20.55;32.58;101486.66;5055883;28;20084;-70
2023/06/28 09:40:37;;;;;;;3.35;1.55;;;;;;;20.54;33.02;101482.16;5053897;28;20045;-70
2023/06/28 09:43:04;;;;;;;3.88;1.55;;;;;;;20.55;32.76;101481.09;5059126;28;20530;-70
2023/06/28 09:45:35;;;;;;;2.90;1.45;;;;;;;20.56;32.78;101480.06;5055433;28;20044;-70
2023/06/28 09:48:04;;;;;;;4.05;1.55;;;;;;;20.57;32.67;101476.22;5063484;28;20045;-70
2023/06/28 09:50:37;;;;;;;2.88;1.45;;;;;;;20.60;33.06;101478.69;5062127;28;20055;-70
2023/06/28 09:53:11;;;;;;;3.80;1.60;;;;;;;20.62;32.79;101482.13;5064838;28;20131;-70
2023/06/28 09:55:40;;;;;;;5.68;1.90;;;;;;;20.61;32.93;101479.56;5060233;28;20048;-70
2023/06/28 09:58:09;;;;;;;3.70;1.38;;;;;;;20.64;32.68;101480.03;5062132;28;20139;-70
2023/06/28 10:00:38;;;;;;;3.60;1.50;;;;;;;20.65;32.68;101483.69;5059792;28;20720;-70
2023/06/28 10:03:07;;;;;;;3.20;1.52;;;;;;;20.65;32.80;101484.53;5054020;28;20341;-70
2023/06/28 10:05:38;;;;;;;3.75;1.67;;;;;;;20.68;32.80;101488.88;5061477;28;20423;-70
2023/06/28 10:08:08;;;;;;;3.55;1.45;;;;;;;20.70;33.04;101486.75;5058132;28;20136;-71
2023/06/28 10:10:39;;;;;;;2.35;1.42;;;;;;;20.71;33.00;101481.00;5055831;28;20069;-70
2023/06/28 10:13:09;;;;;;;4.00;1.60;;;;;;;20.70;32.78;101486.75;5057044;28;20139;-71
2023/06/28 10:15:44;;;;;;;3.85;1.58;;;;;;;20.72;32.97;101482.75;5057679;28;20503;-70
2023/06/28 10:18:13;;;;;;;2.97;1.42;;;;;;;20.71;32.84;101481.00;5057675;28;20044;-71
2023/06/28 10:20:41;;;;;;;3.03;1.52;;;;;;;20.72;32.77;101476.31;5057203;28;20456;-71
2023/06/28 10:23:11;;;;;;;3.97;1.65;;;;;;;20.76;32.94;101480.47;5060712;28;20052;-71
2023/06/28 10:25:41;;;;;;;2.38;1.38;;;;;;;20.77;32.93;101484.97;5064724;28;20036;-73
2023/06/28 10:28:10;;;;;;;7.53;1.70;;;;;;;20.78;32.82;101483.91;5054565;28;20491;-74
2023/06/28 10:30:40;;;;;;;4.05;1.90;;;;;;;20.81;32.62;101479.91;5055129;28;20124;-74
2023/06/28 10:33:08;;;;;;;4.60;1.85;;;;;;;20.81;32.50;101477.13;5057637;28;20060;-74
2023/06/28 10:35:36;;;;;;;3.50;1.67;;;;;;;20.83;32.51;101475.03;5053845;28;20052;-74
2023/06/28 10:38:05;;;;;;;3.00;1.60;;;;;;;20.84;32.51;101473.97;5057856;28;20064;-74
2023/06/28 10:40:33;;;;;;;4.00;1.77;;;;;;;20.86;32.66;101466.31;5055498;28;20075;-74
2023/06/28 10:43:03;;;;;;;4.00;1.60;;;;;;;20.90;32.38;101476.00;5040588;28;20052;-72
2023/06/28 10:45:35;;;;;;;4.22;1.77;;;;;;;20.91;32.38;101474.94;5036687;28;20039;-73
2023/06/28 10:48:04;;;;;;;3.80;1.83;;;;;;;20.88;32.29;101480.88;5038199;28;20063;-75
2023/06/28 10:50:40;;;;;;;4.70;1.50;;;;;;;20.95;32.50;101479.94;5039158;28;20060;-72
2023/06/28 10:53:20;;;;;;;4.75;1.60;;;;;;;20.96;32.46;101478.03;5034006;28;20683;-73
2023/06/28 10:56:08;;;;;;;3.20;1.50;;;;;;;20.93;32.41;101479.28;5039060;28;20036;-72
2023/06/28 10:58:39;;;;;;;3.40;1.42;;;;;;;20.97;32.49;101474.19;5055451;28;20526;-72
2023/06/28 11:01:08;;;;;;;3.25;1.75;;;;;;;20.95;32.46;101471.59;5056477;28;20053;-73
2023/06/28 11:03:41;;;;;;;3.55;1.73;;;;;;;20.99;32.19;101469.31;5040958;28;20169;-71
2023/06/28 11:06:10;;;;;;;2.97;1.60;;;;;;;20.96;32.36;101472.47;5051640;28;20132;-73
2023/06/28 11:08:40;;;;;;;3.80;1.60;;;;;;;20.98;32.34;101478.69;5057848;28;20052;-73
2023/06/28 11:11:12;;;;;;;3.67;1.70;;;;;;;20.97;31.97;101477.84;5078429;28;20048;-71
2023/06/28 11:13:48;;;;;;;3.35;1.70;;;;;;;20.98;32.34;101467.56;5035394;28;20205;-74
2023/06/28 11:16:20;;;;;;;3.25;1.50;;;;;;;20.99;32.27;101466.53;5036359;28;20496;-74
2023/06/28 11:18:49;;;;;;;3.97;1.60;;;;;;;20.99;32.47;101467.38;5058457;28;20044;-74
2023/06/28 11:21:23;;;;;;;3.38;1.63;;;;;;;21.00;32.35;101459.91;5055757;28;20037;-74
2023/06/28 11:23:54;;;;;;;3.35;1.50;;;;;;;21.04;32.60;101464.03;5060767;28;20123;-74
2023/06/28 11:26:33;;;;;;;3.08;1.65;;;;;;;21.07;32.32;101460.88;5053733;28;20053;-72
2023/06/28 11:29:17;;;;;;;3.10;1.80;;;;;;;21.07;32.66;101469.22;5060791;28;20055;-72
2023/06/28 11:31:49;;;;;;;3.72;1.70;;;;;;;21.10;32.53;101457.72;5053382;28;20149;-72
2023/06/28 11:34:18;;;;;;;3.20;1.60;;;;;;;21.08;32.58;101460.69;5061044;28;20148;-72